createdAt,value
2019-04-21T00:00:31.890Z,23.85
2019-04-21T00:03:07.465Z,30.00
2019-04-21T00:05:52.685Z,27.85
2019-04-21T00:08:33.592Z,22.98
2019-04-21T00:10:56.550Z,29.63
2019-04-21T00:13:20.480Z,35.20
2019-04-21T00:15:46.653Z,31.35
2019-04-21T00:18:29.647Z,32.65
2019-04-21T00:21:10.999Z,34.63
2019-04-21T00:23:49.900Z,28.57
2019-04-21T00:26:16.505Z,34.23
2019-04-21T00:28:59.483Z,34.98
2019-04-21T00:31:23.189Z,32.58
2019-04-21T00:33:39.889Z,33.90
2019-04-21T00:36:13.151Z,35.88
2019-04-21T00:39:12.668Z,32.48
2019-04-21T00:41:32.050Z,32.42
2019-04-21T00:43:53.224Z,28.55
2019-04-21T00:46:26.723Z,35.25
2019-04-21T00:49:02.068Z,33.92
2019-04-21T00:51:49.772Z,32.55
2019-04-21T00:54:13.113Z,32.45
2019-04-21T00:56:41.308Z,32.30
2019-04-21T00:59:14.916Z,29.87
2019-04-21T01:01:46.293Z,33.05
2019-04-21T01:04:20.662Z,31.10
2019-04-21T01:06:49.595Z,30.37
2019-04-21T01:09:13.568Z,23.60
2019-04-21T01:11:49.586Z,27.60
2019-04-21T01:14:30.234Z,25.27
2019-04-21T01:16:56.075Z,24.23
2019-04-21T01:19:18.299Z,28.17
2019-04-21T01:21:31.798Z,29.05
2019-04-21T01:24:07.930Z,28.55
2019-04-21T01:26:43.779Z,29.63
2019-04-21T01:29:20.907Z,26.25
2019-04-21T01:31:48.420Z,25.72
2019-04-21T01:34:29.049Z,24.18
2019-04-21T01:36:54.741Z,26.60
2019-04-21T01:39:34.928Z,29.27
2019-04-21T01:42:03.535Z,25.68
2019-04-21T01:44:36.144Z,27.65
2019-04-21T01:46:58.456Z,32.05
2019-04-21T01:49:26.680Z,30.43
2019-04-21T01:52:17.615Z,29.63
2019-04-21T01:54:57.667Z,30.95
2019-04-21T01:57:22.933Z,33.70
2019-04-21T01:59:53.005Z,29.10
2019-04-21T02:02:32.296Z,31.48
2019-04-21T02:05:03.140Z,30.90
2019-04-21T02:07:33.906Z,32.38
2019-04-21T02:10:05.164Z,33.15
2019-04-21T02:12:33.431Z,33.13
2019-04-21T02:15:11.386Z,35.75
2019-04-21T02:17:38.684Z,29.27
2019-04-21T02:20:02.745Z,31.23
2019-04-21T02:25:18.168Z,30.12
2019-04-21T02:27:48.451Z,37.83
2019-04-21T02:30:22.286Z,31.85
2019-04-21T02:35:36.118Z,34.60
2019-04-21T02:40:34.938Z,33.35
2019-04-21T02:45:31.791Z,34.65
2019-04-21T02:48:03.956Z,32.98
2019-04-21T02:50:31.755Z,35.15
2019-04-21T02:53:01.308Z,34.83
2019-04-21T02:55:32.177Z,30.65
2019-04-21T02:58:09.995Z,33.75
2019-04-21T03:00:56.959Z,32.08
2019-04-21T03:03:37.778Z,30.30
2019-04-21T03:06:13.342Z,33.67
2019-04-21T03:08:50.112Z,34.27
2019-04-21T03:13:46.988Z,33.35
2019-04-21T03:16:23.475Z,26.93
2019-04-21T03:18:54.543Z,30.70
2019-04-21T03:23:54.086Z,26.10
2019-04-21T03:26:28.428Z,25.85
2019-04-21T03:28:52.691Z,24.10
2019-04-21T03:32:04.049Z,26.33
2019-04-21T03:34:28.904Z,25.88
2019-04-21T03:36:52.218Z,27.27
2019-04-21T03:38:57.181Z,26.57
2019-04-21T03:41:32.156Z,30.72
2019-04-21T03:44:01.079Z,27.58
2019-04-21T03:46:39.290Z,29.75
2019-04-21T03:54:09.323Z,25.35
2019-04-21T04:01:55.654Z,27.07
2019-04-21T04:07:21.208Z,27.07
2019-04-21T04:09:53.968Z,25.30
2019-04-21T04:14:51.295Z,26.00
2019-04-21T04:17:16.756Z,24.75
2019-04-21T04:25:03.511Z,25.12
2019-04-21T04:30:01.109Z,28.87
2019-04-21T04:32:33.020Z,28.15
2019-04-21T04:35:03.827Z,32.03
2019-04-21T04:40:10.434Z,28.30
2019-04-21T04:45:16.714Z,25.72
2019-04-21T04:47:42.561Z,28.92
2019-04-21T04:50:15.464Z,30.97
2019-04-21T04:55:22.117Z,33.58
2019-04-21T05:00:26.107Z,29.55
2019-04-21T05:02:52.298Z,29.10
2019-04-21T05:10:36.288Z,30.12
2019-04-21T05:12:53.231Z,26.17
2019-04-21T05:15:19.403Z,30.45
2019-04-21T05:22:56.394Z,25.77
2019-04-21T05:25:18.567Z,26.20
2019-04-21T05:27:52.484Z,29.75
2019-04-21T05:30:38.390Z,29.10
2019-04-21T05:33:19.407Z,26.27
2019-04-21T05:36:01.872Z,27.65
2019-04-21T05:38:27.374Z,26.07
2019-04-21T05:40:57.638Z,25.90
2019-04-21T05:43:32.414Z,28.92
2019-04-21T05:46:04.498Z,25.85
2019-04-21T05:48:59.294Z,26.85
2019-04-21T05:51:28.792Z,25.85
2019-04-21T05:54:09.088Z,23.90
2019-04-21T05:56:36.648Z,27.17
2019-04-21T05:59:02.427Z,30.35
2019-04-21T06:01:41.094Z,27.75
2019-04-21T06:04:16.914Z,30.48
2019-04-21T06:06:40.842Z,37.00
2019-04-21T06:09:08.277Z,33.67
2019-04-21T06:11:36.778Z,39.50
2019-04-21T06:14:17.002Z,24.32
2019-04-21T06:16:44.179Z,26.37
2019-04-21T06:19:11.379Z,28.30
2019-04-21T06:21:44.758Z,27.65
2019-04-21T06:24:17.606Z,23.60
2019-04-21T06:29:18.167Z,21.75
2019-04-21T06:32:16.755Z,23.47
2019-04-21T06:34:29.662Z,18.48
2019-04-21T06:37:01.457Z,19.75
2019-04-21T06:39:31.726Z,20.00
2019-04-21T06:42:01.283Z,16.12
2019-04-21T06:44:33.537Z,16.90
2019-04-21T06:47:09.815Z,16.62
2019-04-21T06:49:31.397Z,18.35
2019-04-21T06:52:19.316Z,17.67
2019-04-21T06:54:44.404Z,16.37
2019-04-21T06:57:12.023Z,16.67
2019-04-21T06:59:40.233Z,15.10
2019-04-21T07:04:46.470Z,17.27
2019-04-21T07:07:11.751Z,14.20
2019-04-21T07:09:46.705Z,16.23
2019-04-21T07:12:13.817Z,13.98
2019-04-21T07:14:51.028Z,11.55
2019-04-21T07:17:20.081Z,11.73
2019-04-21T07:22:19.590Z,10.48
2019-04-21T07:24:52.012Z,11.05
2019-04-21T07:27:22.222Z,10.90
2019-04-21T07:29:53.405Z,12.23
2019-04-21T07:32:26.760Z,12.70
2019-04-21T07:34:59.716Z,11.28
2019-04-21T07:37:28.492Z,10.43
2019-04-21T07:39:55.015Z,9.15
2019-04-21T07:42:24.115Z,8.18
2019-04-21T07:44:52.290Z,6.37
2019-04-21T07:47:26.432Z,7.92
2019-04-21T07:50:11.124Z,7.70
2019-04-21T07:52:53.382Z,8.40
2019-04-21T07:57:52.778Z,8.40
2019-04-21T08:02:53.994Z,7.60
2019-04-21T08:05:24.774Z,7.33
2019-04-21T08:10:29.647Z,8.68
2019-04-21T08:12:54.353Z,7.17
2019-04-21T08:15:38.619Z,6.85
2019-04-21T08:18:00.722Z,5.83
2019-04-21T08:20:29.072Z,13.83
2019-04-21T08:25:41.927Z,6.80
2019-04-21T08:28:05.302Z,4.92
2019-04-21T08:30:37.797Z,4.08
2019-04-21T08:38:10.345Z,4.17
2019-04-21T08:40:57.543Z,4.53
2019-04-21T08:43:12.590Z,5.25
2019-04-21T08:48:18.193Z,4.20
2019-04-21T08:50:44.482Z,4.80
2019-04-21T08:53:13.969Z,4.40
2019-04-21T08:56:00.893Z,6.15
2019-04-21T08:58:35.675Z,4.00
2019-04-21T09:01:33.334Z,4.65
2019-04-21T09:09:01.660Z,6.62
2019-04-21T09:11:28.881Z,6.15
2019-04-21T09:14:03.561Z,6.62
2019-04-21T09:16:33.866Z,7.35
2019-04-21T09:18:57.097Z,8.08
2019-04-21T09:21:39.517Z,6.75
2019-04-21T09:24:10.061Z,6.17
2019-04-21T09:26:35.599Z,6.05
2019-04-21T09:29:00.642Z,7.10
2019-04-21T09:31:26.604Z,7.37
2019-04-21T09:33:53.987Z,9.10
2019-04-21T09:36:25.329Z,6.53
2019-04-21T09:39:03.819Z,9.80
2019-04-21T09:41:25.947Z,8.25
2019-04-21T09:43:57.422Z,7.30
2019-04-21T09:46:27.619Z,9.03
2019-04-21T09:49:09.493Z,8.00
2019-04-21T09:51:35.365Z,7.25
2019-04-21T09:54:13.606Z,9.93
2019-04-21T09:56:47.273Z,8.43
2019-04-21T09:59:19.310Z,5.78
2019-04-21T10:01:56.003Z,7.60
2019-04-21T10:04:12.085Z,7.47
2019-04-21T10:06:41.455Z,6.03
2019-04-21T10:09:14.392Z,6.45
2019-04-21T10:11:42.019Z,5.97
2019-04-21T10:14:11.805Z,8.58
2019-04-21T10:16:43.021Z,4.92
2019-04-21T10:19:13.192Z,5.87
2019-04-21T10:21:42.762Z,5.75
2019-04-21T10:24:12.585Z,9.38
2019-04-21T10:26:43.076Z,5.67
2019-04-21T10:29:19.806Z,8.55
2019-04-21T10:31:45.080Z,6.17
2019-04-21T10:34:14.394Z,5.92
2019-04-21T10:36:44.874Z,6.55
2019-04-21T10:39:15.608Z,6.00
2019-04-21T10:41:45.769Z,5.90
2019-04-21T10:44:16.866Z,6.20
2019-04-21T10:46:48.935Z,6.37
2019-04-21T10:49:18.909Z,5.33
2019-04-21T10:51:48.902Z,6.45
2019-04-21T10:54:19.980Z,5.97
2019-04-21T10:56:50.896Z,6.70
2019-04-21T10:59:20.614Z,6.55
2019-04-21T11:01:50.477Z,5.30
2019-04-21T11:04:27.221Z,6.05
2019-04-21T11:06:52.798Z,6.10
2019-04-21T11:09:22.237Z,5.10
2019-04-21T11:11:53.372Z,6.25
2019-04-21T11:14:23.147Z,6.33
2019-04-21T11:16:53.429Z,7.67
2019-04-21T11:19:24.278Z,6.03
2019-04-21T11:21:57.130Z,5.80
2019-04-21T11:24:27.098Z,7.35
2019-04-21T11:26:58.055Z,6.10
2019-04-21T11:29:28.819Z,7.85
2019-04-21T11:31:58.907Z,10.30
2019-04-21T11:34:29.275Z,6.45
2019-04-21T11:36:59.460Z,6.50
2019-04-21T11:39:38.629Z,6.67
2019-04-21T11:42:03.742Z,6.42
2019-04-21T11:44:35.206Z,5.75
2019-04-21T11:47:06.931Z,5.50
2019-04-21T11:49:36.958Z,7.70
2019-04-21T11:52:07.039Z,6.42
2019-04-21T11:54:37.113Z,7.28
2019-04-21T11:57:12.362Z,5.50
2019-04-21T11:59:37.678Z,6.28
2019-04-21T12:02:07.853Z,5.60
2019-04-21T12:04:37.221Z,8.08
2019-04-21T12:07:07.196Z,5.85
2019-04-21T12:09:37.644Z,5.00
2019-04-21T12:12:07.561Z,6.65
2019-04-21T12:14:38.133Z,7.30
2019-04-21T12:17:07.966Z,7.72
2019-04-21T12:19:38.658Z,7.28
2019-04-21T12:22:19.302Z,7.20
2019-04-21T12:24:40.898Z,5.28
2019-04-21T12:27:10.324Z,5.15
2019-04-21T12:29:39.958Z,6.03
2019-04-21T12:32:28.345Z,5.17
2019-04-21T12:34:59.701Z,5.92
2019-04-21T12:37:30.994Z,6.08
2019-04-21T12:40:00.846Z,5.47
2019-04-21T12:42:30.709Z,5.45
2019-04-21T12:45:01.438Z,6.15
2019-04-21T12:47:32.116Z,5.00
2019-04-21T12:50:02.771Z,7.97
2019-04-21T12:52:33.603Z,7.28
2019-04-21T12:55:03.835Z,6.60
2019-04-21T12:57:33.619Z,4.50
2019-04-21T13:00:04.820Z,5.58
2019-04-21T13:02:35.857Z,8.48
2019-04-21T13:05:07.593Z,6.70
2019-04-21T13:07:37.845Z,4.75
2019-04-21T13:10:08.589Z,5.33
2019-04-21T13:12:39.193Z,5.30
2019-04-21T13:15:08.901Z,4.75
2019-04-21T13:17:39.421Z,5.72
2019-04-21T13:20:09.857Z,5.08
2019-04-21T13:22:39.771Z,5.33
2019-04-21T13:25:10.293Z,4.60
2019-04-21T13:27:40.870Z,4.85
2019-04-21T13:30:14.556Z,5.55
2019-04-21T13:32:45.240Z,7.08
2019-04-21T13:35:15.094Z,4.60
2019-04-21T13:37:45.771Z,4.45
2019-04-21T13:40:36.053Z,4.08
2019-04-21T13:42:55.033Z,4.30
2019-04-21T13:45:21.884Z,4.45
2019-04-21T13:47:52.676Z,6.30
2019-04-21T13:50:23.579Z,5.78
2019-04-21T13:52:54.372Z,6.47
2019-04-21T13:55:25.360Z,5.10
2019-04-21T13:57:56.632Z,5.12
2019-04-21T14:00:27.448Z,6.33
2019-04-21T14:02:58.642Z,7.72
2019-04-21T14:05:28.641Z,5.67
2019-04-21T14:07:58.201Z,4.67
2019-04-21T14:10:31.346Z,5.92
2019-04-21T14:13:02.450Z,5.95
2019-04-21T14:15:32.444Z,5.10
2019-04-21T14:18:02.771Z,5.05
2019-04-21T14:20:33.304Z,7.75
2019-04-21T14:23:15.587Z,8.05
2019-04-21T14:25:37.526Z,6.35
2019-04-21T14:28:08.079Z,6.60
2019-04-21T14:30:38.628Z,6.97
2019-04-21T14:33:08.082Z,7.35
2019-04-21T14:35:39.306Z,5.22
2019-04-21T14:38:09.044Z,5.67
2019-04-21T14:40:39.118Z,5.70
2019-04-21T14:43:10.052Z,5.12
2019-04-21T14:45:42.835Z,6.72
2019-04-21T14:48:16.836Z,5.30
2019-04-21T14:50:50.593Z,5.37
2019-04-21T14:53:21.671Z,5.92
2019-04-21T14:55:51.249Z,6.40
2019-04-21T14:58:21.179Z,7.28
2019-04-21T15:00:57.790Z,6.10
2019-04-21T15:03:27.806Z,4.75
2019-04-21T15:05:57.773Z,20.17
2019-04-21T15:08:27.280Z,43.42
2019-04-21T15:10:56.948Z,5.80
2019-04-21T15:13:27.881Z,6.47
2019-04-21T15:15:57.483Z,5.62
2019-04-21T15:18:26.893Z,6.67
2019-04-21T15:20:57.390Z,4.90
2019-04-21T15:23:29.773Z,5.22
2019-04-21T15:25:59.908Z,4.83
2019-04-21T15:28:32.103Z,5.17
2019-04-21T15:31:00.769Z,5.00
2019-04-21T15:33:30.628Z,6.97
2019-04-21T15:36:02.861Z,4.72
2019-04-21T15:38:33.908Z,6.37
2019-04-21T15:41:08.574Z,9.38
2019-04-21T15:43:36.375Z,6.20
2019-04-21T15:46:06.804Z,5.83
2019-04-21T15:48:37.048Z,5.75
2019-04-21T15:51:08.632Z,6.22
2019-04-21T15:53:41.946Z,6.35
2019-04-21T15:56:13.086Z,6.55
2019-04-21T15:58:44.235Z,4.78
2019-04-21T16:01:34.551Z,4.87
2019-04-21T16:04:04.735Z,5.25
2019-04-21T16:06:35.310Z,6.62
2019-04-21T16:09:08.417Z,26.33
2019-04-21T16:11:39.777Z,18.85
2019-04-21T16:14:10.139Z,7.40
2019-04-21T16:16:41.039Z,7.72
2019-04-21T16:19:12.124Z,8.65
2019-04-21T16:21:44.376Z,6.95
2019-04-21T16:24:14.143Z,8.10
2019-04-21T16:26:48.802Z,7.30
2019-04-21T16:29:18.167Z,9.00
2019-04-21T16:31:48.945Z,6.40
2019-04-21T16:34:19.845Z,6.40
2019-04-21T16:36:49.798Z,6.05
2019-04-21T16:39:20.488Z,5.92
2019-04-21T16:41:50.060Z,6.50
2019-04-21T16:44:20.909Z,6.90
2019-04-21T16:46:51.646Z,5.22
2019-04-21T16:49:22.038Z,9.28
2019-04-21T16:52:10.408Z,6.95
2019-04-21T16:54:42.044Z,9.30
2019-04-21T16:57:19.851Z,9.33
2019-04-21T16:59:50.887Z,6.83
2019-04-21T17:02:20.653Z,7.42
2019-04-21T17:04:50.326Z,7.15
2019-04-21T17:07:20.094Z,9.30
2019-04-21T17:09:50.620Z,5.42
2019-04-21T17:12:20.676Z,8.55
2019-04-21T17:15:08.745Z,7.47
2019-04-21T17:17:42.985Z,5.72
2019-04-21T17:19:55.923Z,10.45
2019-04-21T17:22:25.782Z,8.50
2019-04-21T17:24:56.032Z,8.33
2019-04-21T17:27:27.071Z,7.58
2019-04-21T17:29:56.800Z,11.93
2019-04-21T17:32:33.585Z,6.85
2019-04-21T17:34:58.099Z,8.15
2019-04-21T17:37:29.183Z,8.58
2019-04-21T17:40:03.213Z,8.25
2019-04-21T17:42:42.154Z,8.68
2019-04-21T17:45:03.523Z,9.48
2019-04-21T17:47:44.273Z,7.90
2019-04-21T17:50:23.275Z,12.15
2019-04-21T17:53:10.788Z,8.63
2019-04-21T17:55:46.089Z,8.60
2019-04-21T17:58:27.986Z,8.53
2019-04-21T18:03:50.424Z,9.05
2019-04-21T18:06:05.048Z,10.63
2019-04-21T18:08:40.148Z,8.35
2019-04-21T18:11:02.112Z,12.30
2019-04-21T18:13:26.572Z,9.58
2019-04-21T18:16:09.608Z,8.95
2019-04-21T18:18:28.731Z,9.03
2019-04-21T18:21:00.850Z,8.38
2019-04-21T18:23:44.923Z,9.55
2019-04-21T18:26:11.453Z,7.80
2019-04-21T18:28:36.805Z,11.53
2019-04-21T18:31:07.859Z,11.28
2019-04-21T18:33:40.895Z,12.95
2019-04-21T18:36:20.277Z,11.50
2019-04-21T18:39:04.217Z,11.35
2019-04-21T18:41:27.002Z,11.53
2019-04-21T18:47:06.809Z,17.65
2019-04-21T18:49:19.773Z,13.10
2019-04-21T18:52:01.230Z,13.43
2019-04-21T18:54:41.743Z,12.18
2019-04-21T18:57:07.660Z,9.53
2019-04-21T18:59:34.668Z,10.65
2019-04-21T19:02:06.097Z,14.55
2019-04-21T19:04:33.795Z,16.97
2019-04-21T19:07:18.120Z,13.30
2019-04-21T19:12:33.992Z,13.35
2019-04-21T19:14:52.491Z,12.55
2019-04-21T19:20:06.205Z,16.35
2019-04-21T19:22:28.155Z,19.95
2019-04-21T19:24:59.815Z,18.02
2019-04-21T19:27:26.352Z,14.93
2019-04-21T19:30:05.449Z,18.77
2019-04-21T19:32:30.376Z,19.40
2019-04-21T19:34:47.386Z,14.65
2019-04-21T19:37:20.911Z,18.73
2019-04-21T19:39:59.663Z,17.42
2019-04-21T19:42:34.614Z,17.55
2019-04-21T19:45:09.459Z,14.15
2019-04-21T19:47:46.057Z,19.27
2019-04-21T19:50:14.384Z,19.35
2019-04-21T19:52:36.609Z,30.48
2019-04-21T19:54:58.467Z,31.90
2019-04-21T19:57:29.161Z,26.50
2019-04-21T20:00:03.399Z,27.07
2019-04-21T20:02:30.419Z,22.22
2019-04-21T20:05:05.965Z,27.00
2019-04-21T20:07:44.519Z,25.70
2019-04-21T20:10:27.206Z,29.23
2019-04-21T20:12:58.346Z,22.70
2019-04-21T20:15:31.734Z,26.30
2019-04-21T20:17:52.983Z,27.00
2019-04-21T20:20:11.241Z,42.20
2019-04-21T20:22:45.007Z,49.73
2019-04-21T20:25:17.046Z,50.30
2019-04-21T20:27:54.556Z,54.70
2019-04-21T20:30:32.914Z,55.15
2019-04-21T20:33:05.946Z,37.45
2019-04-21T20:38:01.981Z,34.75
2019-04-21T20:40:33.190Z,33.48
2019-04-21T20:43:11.443Z,31.15
2019-04-21T20:45:44.253Z,35.00
2019-04-21T20:47:55.802Z,30.17
2019-04-21T20:50:36.459Z,28.55
2019-04-21T20:53:12.293Z,31.62
2019-04-21T20:55:43.089Z,32.65
2019-04-21T20:58:09.130Z,33.25
2019-04-21T21:00:55.717Z,33.73
2019-04-21T21:03:19.264Z,35.75
2019-04-21T21:05:42.510Z,31.93
2019-04-21T21:08:26.166Z,33.48
2019-04-21T21:10:43.919Z,29.30
2019-04-21T21:13:32.214Z,29.77
2019-04-21T21:16:09.086Z,28.77
2019-04-21T21:18:58.008Z,30.35
2019-04-21T21:21:03.398Z,32.58
2019-04-21T21:23:25.835Z,33.50
2019-04-21T21:25:56.204Z,37.40
2019-04-21T21:28:26.615Z,31.60
2019-04-21T21:31:02.697Z,28.35
2019-04-21T21:33:35.496Z,31.25
2019-04-21T21:36:06.432Z,36.15
2019-04-21T21:38:39.314Z,33.00
2019-04-21T21:40:59.809Z,37.80
2019-04-21T21:43:23.081Z,36.20
2019-04-21T21:45:55.297Z,38.65
2019-04-21T21:48:39.540Z,38.02
2019-04-21T21:51:04.414Z,34.33
2019-04-21T21:53:28.537Z,37.13
2019-04-21T21:55:54.717Z,39.92
2019-04-21T21:58:31.100Z,38.48
2019-04-21T22:01:00.478Z,43.05
2019-04-21T22:03:33.560Z,41.60
2019-04-21T22:06:06.228Z,41.90
2019-04-21T22:08:32.358Z,38.90
2019-04-21T22:11:03.309Z,35.92
2019-04-21T22:13:43.634Z,42.33
2019-04-21T22:16:10.689Z,37.67
2019-04-21T22:18:55.094Z,32.23
2019-04-21T22:21:18.786Z,35.58
2019-04-21T22:23:47.815Z,33.90
2019-04-21T22:26:09.285Z,31.27
2019-04-21T22:28:40.007Z,33.80
2019-04-21T22:31:15.450Z,27.87
2019-04-21T22:33:48.303Z,36.63
2019-04-21T22:36:26.734Z,32.73
2019-04-21T22:38:59.865Z,30.70
2019-04-21T22:41:24.515Z,35.08
2019-04-21T22:43:48.381Z,36.77
2019-04-21T22:46:16.418Z,34.38
2019-04-21T22:48:53.123Z,33.05
2019-04-21T22:51:25.290Z,33.75
2019-04-21T22:53:50.796Z,33.60
2019-04-21T22:56:25.648Z,30.15
2019-04-21T22:58:51.372Z,29.37
2019-04-21T23:01:28.586Z,30.85
2019-04-21T23:03:56.877Z,31.85
2019-04-21T23:06:28.681Z,27.90
2019-04-21T23:08:56.947Z,25.50
2019-04-21T23:11:28.091Z,29.40
2019-04-21T23:14:04.328Z,28.75
2019-04-21T23:16:35.242Z,29.02
2019-04-21T23:19:20.054Z,24.67
2019-04-21T23:21:53.813Z,26.65
2019-04-21T23:24:31.386Z,21.68
2019-04-21T23:26:50.723Z,20.95
2019-04-21T23:29:39.549Z,23.75
2019-04-21T23:31:57.351Z,20.72
2019-04-21T23:34:19.580Z,20.55
2019-04-21T23:36:52.200Z,18.67
2019-04-21T23:39:21.059Z,17.30
2019-04-21T23:41:47.893Z,17.20
2019-04-21T23:44:18.711Z,16.87
2019-04-21T23:46:51.086Z,16.27
2019-04-21T23:49:31.951Z,16.07
2019-04-21T23:51:56.774Z,14.70
2019-04-21T23:54:20.117Z,15.13
2019-04-21T23:56:49.607Z,16.82
2019-04-21T23:59:20.463Z,12.73
